Time;durP1;ratioP1;P1;durP2;ratioP2;P2;SDS_P1;SDS_P2;PMS_P1;PMS_P2;Temp;Humidity;BMP_temperature;BMP_pressure;BME280_temperature;BME280_humidity;BME280_pressure;Samples;Min_cycle;Max_cycle;Signal;HPM_P1;HPM_P2
2022/09/15 00:01:15;;;;;;;;;;;12.80;99.90;;;;;;4997711;28;20374;-28
2022/09/15 00:03:41;;;;;;;;;;;12.80;99.90;;;;;;4997623;28;19952;-28
2022/09/15 00:06:07;;;;;;;;;;;12.70;99.90;;;;;;4997385;28;19980;-28
2022/09/15 00:08:34;;;;;;;;;;;12.70;99.90;;;;;;4997261;28;19925;-28
2022/09/15 00:11:06;;;;;;;;;;;12.60;99.90;;;;;;4997387;28;19964;-28
2022/09/15 00:13:33;;;;;;;;;;;12.70;99.90;;;;;;5013925;28;19922;-28
2022/09/15 00:15:58;;;;;;;;;;;12.70;99.90;;;;;;4997455;28;19917;-28
2022/09/15 00:18:24;;;;;;;;;;;12.70;99.90;;;;;;4997217;28;19967;-28
2022/09/15 00:20:50;;;;;;;;;;;12.70;99.90;;;;;;5014499;28;19917;-28
2022/09/15 00:23:16;;;;;;;;;;;12.70;99.90;;;;;;4997169;28;19918;-28
2022/09/15 00:25:51;;;;;;;;;;;12.70;99.90;;;;;;4996954;28;20000;-29
2022/09/15 00:28:17;;;;;;;;;;;12.70;99.90;;;;;;4997252;28;20359;-28
2022/09/15 00:30:44;;;;;;;;;;;12.60;99.90;;;;;;4996515;28;19964;-28
2022/09/15 00:33:10;;;;;;;;;;;12.60;99.90;;;;;;4996665;28;20379;-28
2022/09/15 00:35:37;;;;;;;;;;;12.60;99.90;;;;;;4996610;28;19963;-28
2022/09/15 00:38:03;;;;;;;;;;;12.50;99.90;;;;;;4996889;28;20367;-29
2022/09/15 00:40:29;;;;;;;;;;;12.50;99.90;;;;;;4996708;28;19985;-28
2022/09/15 00:42:54;;;;;;;;;;;12.40;99.90;;;;;;4996682;28;19917;-28
2022/09/15 00:45:20;;;;;;;;;;;12.40;99.90;;;;;;4996529;28;20367;-28
2022/09/15 00:47:46;;;;;;;;;;;12.40;99.90;;;;;;4996663;28;20120;-28
2022/09/15 00:50:15;;;;;;;;;;;12.50;99.90;;;;;;4980183;28;20311;-28
2022/09/15 00:52:48;;;;;;;;;;;12.50;99.90;;;;;;4996394;28;19927;-29
2022/09/15 00:55:20;;;;;;;;;;;12.60;99.90;;;;;;4996690;28;19940;-28
2022/09/15 00:58:00;;;;;;;;;;;12.60;99.90;;;;;;5012881;28;19956;-29
2022/09/15 01:00:27;;;;;;;;;;;12.70;99.90;;;;;;4995661;28;19965;-28
2022/09/15 01:02:53;;;;;;;;;;;12.70;99.90;;;;;;4996063;28;19921;-28
2022/09/15 01:05:21;;;;;;;;;;;12.70;99.90;;;;;;4996275;28;19918;-28
2022/09/15 01:08:02;;;;;;;;;;;12.70;99.90;;;;;;4995925;28;19924;-28
2022/09/15 01:10:32;;;;;;;;;;;12.80;99.90;;;;;;5013526;28;20007;-28
2022/09/15 01:13:00;;;;;;;;;;;12.80;99.90;;;;;;4996122;28;19927;-28
2022/09/15 01:15:30;;;;;;;;;;;12.90;99.90;;;;;;4996197;28;19924;-28
2022/09/15 01:18:08;;;;;;;;;;;12.90;99.90;;;;;;4996043;28;19924;-28
2022/09/15 01:20:37;;;;;;;;;;;13.00;99.90;;;;;;4995670;28;19924;-28
2022/09/15 01:23:02;;;;;;;;;;;13.00;99.90;;;;;;5012487;28;20400;-28
2022/09/15 01:25:48;;;;;;;;;;;13.10;99.90;;;;;;5012093;28;19917;-29
2022/09/15 01:28:29;;;;;;;;;;;13.10;99.90;;;;;;4985341;28;20389;-28
2022/09/15 01:30:58;;;;;;;;;;;13.20;99.90;;;;;;5011841;28;19979;-28
2022/09/15 01:33:34;;;;;;;;;;;13.20;99.90;;;;;;4995503;28;19971;-28
2022/09/15 01:35:59;;;;;;;;;;;13.20;99.90;;;;;;4995556;28;19917;-28
2022/09/15 01:38:44;;;;;;;;;;;13.20;99.90;;;;;;5011843;28;19923;-28
2022/09/15 01:41:09;;;;;;;;;;;13.20;99.90;;;;;;5012027;28;19964;-28
2022/09/15 01:43:38;;;;;;;;;;;13.20;99.90;;;;;;5011705;28;20372;-28
2022/09/15 01:46:04;;;;;;;;;;;13.20;99.90;;;;;;4995463;28;19917;-29
2022/09/15 01:48:32;;;;;;;;;;;13.20;99.90;;;;;;4995399;28;19917;-29
2022/09/15 01:51:00;;;;;;;;;;;13.30;99.90;;;;;;4995323;28;19921;-28
2022/09/15 01:53:25;;;;;;;;;;;13.30;99.90;;;;;;4995436;28;19972;-28
2022/09/15 01:56:00;;;;;;;;;;;13.40;99.90;;;;;;4995609;28;19921;-28
2022/09/15 01:58:26;;;;;;;;;;;13.40;99.90;;;;;;5011489;28;19925;-28
2022/09/15 02:00:57;;;;;;;;;;;13.40;99.90;;;;;;4995402;28;19921;-28
2022/09/15 02:03:30;;;;;;;;;;;13.40;99.90;;;;;;4995184;28;19921;-28
2022/09/15 02:06:01;;;;;;;;;;;13.40;99.90;;;;;;4995138;28;19924;-28
2022/09/15 02:08:33;;;;;;;;;;;13.40;99.90;;;;;;4995463;28;20390;-28
2022/09/15 02:11:08;;;;;;;;;;;13.40;99.90;;;;;;4994762;28;19918;-28
2022/09/15 02:13:38;;;;;;;;;;;13.40;99.90;;;;;;5011659;28;20287;-28
2022/09/15 02:16:05;;;;;;;;;;;13.40;99.90;;;;;;4994763;28;19924;-28
2022/09/15 02:18:44;;;;;;;;;;;13.50;99.90;;;;;;4995449;28;20377;-28
2022/09/15 02:21:18;;;;;;;;;;;13.50;99.90;;;;;;4994829;28;19979;-28
2022/09/15 02:23:49;;;;;;;;;;;13.50;99.90;;;;;;4995296;28;19917;-28
2022/09/15 02:26:18;;;;;;;;;;;13.50;99.90;;;;;;4995314;28;19966;-28
2022/09/15 02:28:46;;;;;;;;;;;13.50;99.90;;;;;;4994984;28;19917;-28
2022/09/15 02:31:13;;;;;;;;;;;13.50;99.90;;;;;;4995139;28;20075;-28
2022/09/15 02:33:43;;;;;;;;;;;13.50;99.90;;;;;;4995037;28;20363;-29
2022/09/15 02:36:10;;;;;;;;;;;13.50;99.90;;;;;;4994925;28;19924;-28
2022/09/15 02:38:39;;;;;;;;;;;13.50;99.90;;;;;;4995166;28;19918;-28
2022/09/15 02:41:05;;;;;;;;;;;13.50;99.90;;;;;;4994741;28;19961;-28
2022/09/15 02:43:31;;;;;;;;;;;13.50;99.90;;;;;;4995055;28;19956;-28
2022/09/15 02:45:57;;;;;;;;;;;13.50;99.90;;;;;;4995126;28;20345;-28
2022/09/15 02:48:24;;;;;;;;;;;13.40;99.90;;;;;;4994717;28;20375;-28
2022/09/15 02:50:49;;;;;;;;;;;13.40;99.90;;;;;;5011036;28;19996;-28
2022/09/15 02:53:15;;;;;;;;;;;13.40;99.90;;;;;;5010940;28;20017;-28
2022/09/15 02:55:40;;;;;;;;;;;13.40;99.90;;;;;;4978555;28;19925;-28
2022/09/15 02:58:06;;;;;;;;;;;13.40;99.90;;;;;;4995004;28;20279;-29
2022/09/15 03:00:32;;;;;;;;;;;13.40;99.90;;;;;;4994565;28;19917;-28
2022/09/15 03:02:57;;;;;;;;;;;13.40;99.90;;;;;;4994764;28;19917;-28
2022/09/15 03:05:24;;;;;;;;;;;13.40;99.90;;;;;;4994775;28;19921;-28
2022/09/15 03:07:50;;;;;;;;;;;13.40;99.90;;;;;;4978582;28;20430;-28
2022/09/15 03:10:16;;;;;;;;;;;13.40;99.90;;;;;;4994489;28;19921;-28
2022/09/15 03:12:43;;;;;;;;;;;13.40;99.90;;;;;;4994351;28;19922;-28
2022/09/15 03:15:09;;;;;;;;;;;13.40;99.90;;;;;;4994911;28;19996;-29
2022/09/15 03:17:36;;;;;;;;;;;13.40;99.90;;;;;;4994736;28;19918;-29
2022/09/15 03:20:03;;;;;;;;;;;13.50;99.90;;;;;;4994479;28;19923;-28
2022/09/15 03:22:29;;;;;;;;;;;13.50;99.90;;;;;;4996061;28;19918;-28
2022/09/15 03:24:54;;;;;;;;;;;13.50;99.90;;;;;;4998010;28;19917;-28
2022/09/15 03:27:20;;;;;;;;;;;13.60;99.90;;;;;;4998425;28;19917;-29
2022/09/15 03:29:45;;;;;;;;;;;13.60;99.90;;;;;;4998171;28;20338;-29
2022/09/15 03:32:11;;;;;;;;;;;13.60;99.90;;;;;;4998328;28;19921;-29
2022/09/15 03:34:37;;;;;;;;;;;13.60;99.90;;;;;;4998905;28;19925;-29
2022/09/15 03:37:02;;;;;;;;;;;13.60;99.90;;;;;;5013493;28;19936;-30
2022/09/15 03:39:28;;;;;;;;;;;13.60;99.90;;;;;;5037406;28;20007;-29
2022/09/15 03:41:54;;;;;;;;;;;13.60;99.90;;;;;;5037360;28;19916;-29
2022/09/15 03:44:20;;;;;;;;;;;13.60;99.90;;;;;;5037514;28;19917;-28
2022/09/15 03:46:45;;;;;;;;;;;13.60;99.90;;;;;;5037437;28;20385;-29
2022/09/15 03:49:11;;;;;;;;;;;13.60;99.90;;;;;;5037095;28;19917;-28
2022/09/15 03:51:37;;;;;;;;;;;13.60;99.90;;;;;;5020354;28;19923;-28
2022/09/15 03:54:02;;;;;;;;;;;13.60;99.90;;;;;;5036807;28;19924;-28
2022/09/15 03:56:32;;;;;;;;;;;13.70;99.90;;;;;;5036712;28;19916;-28
2022/09/15 03:58:59;;;;;;;;;;;13.60;99.90;;;;;;5036832;28;19960;-29
2022/09/15 04:01:25;;;;;;;;;;;13.60;99.90;;;;;;5036963;28;19916;-29
2022/09/15 04:03:50;;;;;;;;;;;13.70;99.90;;;;;;5036998;28;20007;-29
2022/09/15 04:06:16;;;;;;;;;;;13.60;99.90;;;;;;5036566;28;20003;-28
2022/09/15 04:08:42;;;;;;;;;;;13.60;99.90;;;;;;5037048;28;19916;-29
2022/09/15 04:11:09;;;;;;;;;;;13.60;99.90;;;;;;5036428;28;19984;-29
2022/09/15 04:13:35;;;;;;;;;;;13.60;99.90;;;;;;5036819;28;19927;-28
2022/09/15 04:16:02;;;;;;;;;;;13.70;99.90;;;;;;5036771;28;20374;-29
2022/09/15 04:18:28;;;;;;;;;;;13.70;99.90;;;;;;5036251;28;19916;-29
2022/09/15 04:20:57;;;;;;;;;;;13.70;99.90;;;;;;5036396;28;19921;-29
2022/09/15 04:23:23;;;;;;;;;;;13.70;99.90;;;;;;5036286;28;19920;-29
2022/09/15 04:25:59;;;;;;;;;;;13.60;99.90;;;;;;5036608;28;19921;-28
2022/09/15 04:28:25;;;;;;;;;;;13.60;99.90;;;;;;5036161;28;19916;-28
2022/09/15 04:30:52;;;;;;;;;;;13.60;99.90;;;;;;5036377;28;19923;-29
2022/09/15 04:33:17;;;;;;;;;;;13.60;99.90;;;;;;5035948;28;19921;-28
2022/09/15 04:35:43;;;;;;;;;;;13.60;99.90;;;;;;5036058;28;20286;-28
2022/09/15 04:38:10;;;;;;;;;;;13.60;99.90;;;;;;5035985;28;19960;-28
2022/09/15 04:40:36;;;;;;;;;;;13.60;99.90;;;;;;5036189;28;19923;-29
2022/09/15 04:43:03;;;;;;;;;;;13.50;99.90;;;;;;5035823;28;19923;-28
2022/09/15 04:45:28;;;;;;;;;;;13.50;99.90;;;;;;5035765;28;19917;-28
2022/09/15 04:47:54;;;;;;;;;;;13.50;99.90;;;;;;5035865;28;19917;-28
2022/09/15 04:50:20;;;;;;;;;;;13.50;99.90;;;;;;5035762;28;19916;-28
2022/09/15 04:52:45;;;;;;;;;;;13.50;99.90;;;;;;5035963;28;19960;-28
2022/09/15 04:55:11;;;;;;;;;;;13.50;99.90;;;;;;5035566;28;20007;-28
2022/09/15 04:57:36;;;;;;;;;;;13.40;99.90;;;;;;5035896;28;19962;-28
2022/09/15 05:00:05;;;;;;;;;;;13.50;99.90;;;;;;5035631;28;20347;-28
2022/09/15 05:02:31;;;;;;;;;;;13.50;99.90;;;;;;5035749;28;19917;-29
2022/09/15 05:04:57;;;;;;;;;;;13.40;99.90;;;;;;5035905;28;20236;-28
2022/09/15 05:07:23;;;;;;;;;;;13.40;99.90;;;;;;5035526;28;19920;-29
2022/09/15 05:09:48;;;;;;;;;;;13.40;99.90;;;;;;5035829;28;20374;-29
2022/09/15 05:12:14;;;;;;;;;;;13.40;99.90;;;;;;5018742;28;19927;-29
2022/09/15 05:14:39;;;;;;;;;;;13.40;99.90;;;;;;5035683;28;19916;-29
2022/09/15 05:17:05;;;;;;;;;;;13.40;99.90;;;;;;5035458;28;19967;-29
2022/09/15 05:19:31;;;;;;;;;;;13.40;99.90;;;;;;5035121;28;19939;-29
2022/09/15 05:21:56;;;;;;;;;;;13.40;99.90;;;;;;5018677;28;19917;-29
2022/09/15 05:24:22;;;;;;;;;;;13.50;99.90;;;;;;5035289;28;20385;-28
2022/09/15 05:26:47;;;;;;;;;;;13.50;99.90;;;;;;5034914;28;19960;-29
2022/09/15 05:29:13;;;;;;;;;;;13.40;99.90;;;;;;5034950;28;19920;-28
2022/09/15 05:31:39;;;;;;;;;;;13.50;99.90;;;;;;5035015;28;19917;-28
2022/09/15 05:34:04;;;;;;;;;;;13.50;99.90;;;;;;5035061;28;19975;-28
2022/09/15 05:36:30;;;;;;;;;;;13.50;99.90;;;;;;5035237;28;19917;-28
2022/09/15 05:38:56;;;;;;;;;;;13.50;99.90;;;;;;5033938;28;19964;-29
2022/09/15 05:41:23;;;;;;;;;;;13.60;99.90;;;;;;5033717;28;20365;-29
2022/09/15 05:43:49;;;;;;;;;;;13.60;99.90;;;;;;5034156;28;19924;-29
2022/09/15 05:46:17;;;;;;;;;;;13.60;99.90;;;;;;5033743;28;20353;-29
2022/09/15 05:48:43;;;;;;;;;;;13.60;99.90;;;;;;5033900;28;19959;-29
2022/09/15 05:51:09;;;;;;;;;;;13.60;99.90;;;;;;5034036;28;19917;-29
2022/09/15 05:53:35;;;;;;;;;;;13.70;99.90;;;;;;5034323;28;20414;-29
2022/09/15 05:56:03;;;;;;;;;;;13.70;99.90;;;;;;5034749;28;20021;-29
2022/09/15 05:58:29;;;;;;;;;;;13.70;99.90;;;;;;5035027;28;20388;-28
2022/09/15 06:01:15;;;;;;;;;;;13.70;99.90;;;;;;5018412;28;20285;-29
2022/09/15 06:03:41;;;;;;;;;;;13.70;99.90;;;;;;5034569;28;19916;-28
2022/09/15 06:06:07;;;;;;;;;;;13.80;99.90;;;;;;5034648;28;19983;-28
2022/09/15 06:08:34;;;;;;;;;;;13.80;99.90;;;;;;5034378;28;19921;-29
2022/09/15 06:11:08;;;;;;;;;;;13.80;99.90;;;;;;5034524;28;20374;-28
2022/09/15 06:13:34;;;;;;;;;;;13.90;99.90;;;;;;5034464;28;20344;-28
2022/09/15 06:16:10;;;;;;;;;;;13.90;99.90;;;;;;5034489;28;19959;-28
2022/09/15 06:18:37;;;;;;;;;;;13.90;99.90;;;;;;5034503;28;19923;-28
2022/09/15 06:21:07;;;;;;;;;;;14.00;99.90;;;;;;5034698;28;19916;-28
2022/09/15 06:23:32;;;;;;;;;;;14.00;99.90;;;;;;5017832;28;19916;-28
2022/09/15 06:26:24;;;;;;;;;;;14.00;99.90;;;;;;5034531;28;19916;-28
2022/09/15 06:28:51;;;;;;;;;;;14.10;99.90;;;;;;5029547;28;19974;-28
2022/09/15 06:31:17;;;;;;;;;;;14.10;99.90;;;;;;5034431;28;20358;-28
2022/09/15 06:33:44;;;;;;;;;;;14.20;99.90;;;;;;5034535;28;19925;-28
2022/09/15 06:36:10;;;;;;;;;;;14.30;99.90;;;;;;5034070;28;19916;-28
2022/09/15 06:38:37;;;;;;;;;;;14.40;99.90;;;;;;5034171;28;19917;-28
2022/09/15 06:41:03;;;;;;;;;;;14.50;99.90;;;;;;5034128;28;19916;-28
2022/09/15 06:43:29;;;;;;;;;;;14.60;99.90;;;;;;5034371;28;19916;-28
2022/09/15 06:46:00;;;;;;;;;;;14.70;99.90;;;;;;5034413;28;19917;-28
2022/09/15 06:48:26;;;;;;;;;;;14.70;99.90;;;;;;5034163;28;19923;-28
2022/09/15 06:50:52;;;;;;;;;;;14.80;99.90;;;;;;5034256;28;20007;-28
2022/09/15 06:53:18;;;;;;;;;;;14.80;99.90;;;;;;5033912;28;19921;-28
2022/09/15 06:55:44;;;;;;;;;;;14.90;99.90;;;;;;5034395;28;19970;-28
2022/09/15 06:58:09;;;;;;;;;;;14.90;99.90;;;;;;5036627;28;19924;-28
2022/09/15 07:00:35;;;;;;;;;;;15.00;99.90;;;;;;5038140;28;19971;-28
2022/09/15 07:03:00;;;;;;;;;;;15.10;99.90;;;;;;5037622;28;19916;-28
2022/09/15 07:05:26;;;;;;;;;;;15.10;99.90;;;;;;5038044;28;19916;-28
2022/09/15 07:07:52;;;;;;;;;;;15.20;99.90;;;;;;5037722;28;20378;-28
2022/09/15 07:10:17;;;;;;;;;;;15.30;99.90;;;;;;5037974;28;20354;-28
2022/09/15 07:12:43;;;;;;;;;;;15.30;99.90;;;;;;5037294;28;20011;-28
2022/09/15 07:15:09;;;;;;;;;;;15.40;99.90;;;;;;5037824;28;19917;-28
2022/09/15 07:17:36;;;;;;;;;;;15.50;99.90;;;;;;5037483;28;19923;-28
2022/09/15 07:20:02;;;;;;;;;;;15.60;99.90;;;;;;5037697;28;19974;-28
2022/09/15 07:22:27;;;;;;;;;;;15.60;99.90;;;;;;5037644;28;20313;-28
2022/09/15 07:24:53;;;;;;;;;;;15.60;99.90;;;;;;5021040;28;19920;-28
2022/09/15 07:27:21;;;;;;;;;;;15.60;99.90;;;;;;5037630;28;19924;-28
2022/09/15 07:29:46;;;;;;;;;;;15.70;99.90;;;;;;5037692;28;19923;-27
2022/09/15 07:32:12;;;;;;;;;;;15.70;99.90;;;;;;5037286;28;20286;-28
2022/09/15 07:34:38;;;;;;;;;;;15.80;99.90;;;;;;5055044;28;19923;-27
2022/09/15 07:37:03;;;;;;;;;;;16.00;99.90;;;;;;5037378;28;19921;-28
2022/09/15 07:39:29;;;;;;;;;;;16.10;99.90;;;;;;5037418;28;20333;-27
2022/09/15 07:41:55;;;;;;;;;;;16.30;99.90;;;;;;5037106;28;19923;-27
2022/09/15 07:44:20;;;;;;;;;;;16.30;99.90;;;;;;5037339;28;20370;-28
2022/09/15 07:46:46;;;;;;;;;;;16.40;99.90;;;;;;5037509;28;20554;-29
2022/09/15 07:49:12;;;;;;;;;;;16.30;99.90;;;;;;5038355;28;19923;-28
2022/09/15 07:51:38;;;;;;;;;;;16.40;99.90;;;;;;5038195;28;19917;-28
2022/09/15 07:54:03;;;;;;;;;;;16.50;99.90;;;;;;5056183;28;19932;-29
2022/09/15 07:56:29;;;;;;;;;;;16.70;99.90;;;;;;5038403;28;19960;-29
2022/09/15 07:58:55;;;;;;;;;;;17.10;99.90;;;;;;5038453;28;20374;-29
2022/09/15 08:01:21;;;;;;;;;;;17.50;99.90;;;;;;5038886;28;20255;-29
2022/09/15 08:03:48;;;;;;;;;;;17.70;99.90;;;;;;5038082;28;20011;-36
2022/09/15 08:06:14;;;;;;;;;;;17.70;99.90;;;;;;5038399;28;19921;-30
2022/09/15 08:08:42;;;;;;;;;;;17.60;99.90;;;;;;5037775;28;20021;-29
2022/09/15 08:11:09;;;;;;;;;;;17.60;99.90;;;;;;5021345;28;19921;-29
2022/09/15 08:13:35;;;;;;;;;;;17.90;99.90;;;;;;5037961;28;19928;-28
2022/09/15 08:16:05;;;;;;;;;;;17.90;99.90;;;;;;5038515;28;19916;-28
2022/09/15 08:18:31;;;;;;;;;;;18.00;99.90;;;;;;5038127;28;19916;-29
2022/09/15 08:20:56;;;;;;;;;;;17.90;99.90;;;;;;5037894;28;20300;-29
2022/09/15 08:23:22;;;;;;;;;;;18.00;99.90;;;;;;5055604;28;20285;-29
2022/09/15 08:25:50;;;;;;;;;;;18.10;99.90;;;;;;5037266;28;19917;-30
2022/09/15 08:28:16;;;;;;;;;;;18.00;99.90;;;;;;5037368;28;19916;-29
2022/09/15 08:30:41;;;;;;;;;;;17.90;99.90;;;;;;5037468;28;20003;-29
2022/09/15 08:33:07;;;;;;;;;;;18.10;99.90;;;;;;5020395;28;19928;-29
2022/09/15 08:35:33;;;;;;;;;;;18.20;99.90;;;;;;5036915;28;19921;-29
2022/09/15 08:37:59;;;;;;;;;;;18.50;99.90;;;;;;5036894;28;19975;-28
2022/09/15 08:40:30;;;;;;;;;;;19.10;99.90;;;;;;5037307;28;19917;-30
2022/09/15 08:42:58;;;;;;;;;;;19.70;99.90;;;;;;5020049;28;19917;-29
2022/09/15 08:45:29;;;;;;;;;;;19.70;99.90;;;;;;5037155;28;20388;-29
2022/09/15 08:47:57;;;;;;;;;;;19.50;99.90;;;;;;5054608;28;19923;-29
2022/09/15 08:50:38;;;;;;;;;;;19.40;99.90;;;;;;5036864;28;20450;-29
2022/09/15 08:53:11;;;;;;;;;;;19.30;99.90;;;;;;5036662;28;19921;-29
2022/09/15 08:55:51;;;;;;;;;;;19.20;99.90;;;;;;5036400;28;19917;-29
2022/09/15 08:58:18;;;;;;;;;;;19.20;99.90;;;;;;5054571;28;20381;-29
2022/09/15 09:00:45;;;;;;;;;;;19.20;99.90;;;;;;5053092;28;19917;-29
2022/09/15 09:03:14;;;;;;;;;;;19.10;99.90;;;;;;5019853;28;19921;-29
2022/09/15 09:05:40;;;;;;;;;;;19.10;99.90;;;;;;5019537;28;19917;-29
2022/09/15 09:08:15;;;;;;;;;;;19.00;99.90;;;;;;5036166;28;19917;-29
2022/09/15 09:10:40;;;;;;;;;;;18.90;99.90;;;;;;5035876;28;19962;-29
2022/09/15 09:13:06;;;;;;;;;;;18.90;99.90;;;;;;5035860;28;19921;-29
2022/09/15 09:15:44;;;;;;;;;;;19.10;99.90;;;;;;5019779;28;19923;-29
2022/09/15 09:18:13;;;;;;;;;;;19.70;99.90;;;;;;5053925;28;19917;-29
2022/09/15 09:20:51;;;;;;;;;;;20.30;99.90;;;;;;5035310;28;19920;-30
2022/09/15 09:23:18;;;;;;;;;;;20.80;99.90;;;;;;5036323;28;19917;-30
2022/09/15 09:25:44;;;;;;;;;;;21.50;96.60;;;;;;5052527;28;19923;-30
2022/09/15 09:28:30;;;;;;;;;;;21.40;83.20;;;;;;5035845;28;19917;-30
2022/09/15 09:31:00;;;;;;;;;;;21.60;91.50;;;;;;5035213;28;19927;-30
2022/09/15 09:33:29;;;;;;;;;;;21.80;90.40;;;;;;5036216;28;20382;-29
2022/09/15 09:35:57;;;;;;;;;;;21.80;85.40;;;;;;5019509;28;19940;-29
2022/09/15 09:38:35;;;;;;;;;;;22.20;83.80;;;;;;5036052;28;19970;-30
2022/09/15 09:41:00;;;;;;;;;;;22.30;78.50;;;;;;5035578;28;19975;-29
2022/09/15 09:43:27;;;;;;;;;;;22.60;74.20;;;;;;5034323;28;20382;-30
2022/09/15 09:45:53;;;;;;;;;;;22.20;73.70;;;;;;5035680;28;19980;-30
2022/09/15 09:48:23;;;;;;;;;;;22.20;74.60;;;;;;5035400;28;19916;-30
2022/09/15 09:50:49;;;;;;;;;;;21.90;68.80;;;;;;5035741;28;20386;-30
2022/09/15 09:53:19;;;;;;;;;;;21.90;81.80;;;;;;5052233;28;19960;-30
2022/09/15 09:55:44;;;;;;;;;;;21.40;76.60;;;;;;5052885;28;19917;-29
2022/09/15 09:58:21;;;;;;;;;;;21.60;79.80;;;;;;5035474;28;19923;-29
2022/09/15 10:00:47;;;;;;;;;;;21.90;93.70;;;;;;5035365;28;19917;-29
2022/09/15 10:03:23;;;;;;;;;;;21.70;75.30;;;;;;5035268;28;19924;-29
2022/09/15 10:06:03;;;;;;;;;;;21.40;76.60;;;;;;5035586;28;19917;-29
2022/09/15 10:08:29;;;;;;;;;;;21.30;84.70;;;;;;5035531;28;19917;-29
2022/09/15 10:10:59;;;;;;;;;;;20.80;67.90;;;;;;5035175;28;19924;-29
2022/09/15 10:13:25;;;;;;;;;;;20.70;78.40;;;;;;5035157;28;19927;-29
2022/09/15 10:15:55;;;;;;;;;;;20.60;85.70;;;;;;5035353;28;19974;-29
2022/09/15 10:18:26;;;;;;;;;;;20.70;94.40;;;;;;5018796;28;19928;-30
2022/09/15 10:20:51;;;;;;;;;;;21.00;88.50;;;;;;5034634;28;19928;-28
2022/09/15 10:23:17;;;;;;;;;;;21.00;80.90;;;;;;5034802;28;20370;-28
2022/09/15 10:25:44;;;;;;;;;;;21.20;92.90;;;;;;5034881;28;20044;-28
2022/09/15 10:28:14;;;;;;;;;;;21.20;85.50;;;;;;5018366;28;19916;-28
2022/09/15 10:30:58;;;;;;;;;;;21.20;84.80;;;;;;5035655;28;20405;-28
2022/09/15 10:33:24;;;;;;;;;;;21.20;81.50;;;;;;5039278;28;20019;-29
2022/09/15 10:35:50;;;;;;;;;;;21.10;87.00;;;;;;5022779;28;20401;-28
2022/09/15 10:38:20;;;;;;;;;;;21.20;90.10;;;;;;5039005;28;19917;-29
2022/09/15 10:40:55;;;;;;;;;;;21.30;93.00;;;;;;5038860;28;19923;-28
2022/09/15 10:43:21;;;;;;;;;;;21.20;81.10;;;;;;5038989;28;19916;-29
2022/09/15 10:45:47;;;;;;;;;;;21.00;77.30;;;;;;5039082;28;19917;-29
2022/09/15 10:48:32;;;;;;;;;;;20.90;79.30;;;;;;5039174;28;20304;-29
2022/09/15 10:51:02;;;;;;;;;;;21.40;70.10;;;;;;5057065;28;19956;-29
2022/09/15 10:53:51;;;;;;;;;;;21.70;63.50;;;;;;5039019;28;20377;-29
2022/09/15 10:56:26;;;;;;;;;;;21.80;62.50;;;;;;5055584;28;20298;-29
2022/09/15 10:59:10;;;;;;;;;;;22.40;63.20;;;;;;5022387;28;19971;-29
2022/09/15 11:01:39;;;;;;;;;;;23.00;58.80;;;;;;5056608;28;19924;-29
2022/09/15 11:04:13;;;;;;;;;;;23.20;55.70;;;;;;5038923;28;19917;-30
2022/09/15 11:06:39;;;;;;;;;;;22.80;56.90;;;;;;5038152;28;19962;-29
2022/09/15 11:09:05;;;;;;;;;;;22.50;55.10;;;;;;5038869;28;19917;-29
2022/09/15 11:11:49;;;;;;;;;;;22.30;55.30;;;;;;5022143;28;19916;-29
2022/09/15 11:14:32;;;;;;;;;;;22.40;59.10;;;;;;5038667;28;20289;-29
2022/09/15 11:17:13;;;;;;;;;;;22.20;58.00;;;;;;5038618;28;20289;-29
2022/09/15 11:19:39;;;;;;;;;;;21.80;60.70;;;;;;5038548;28;19917;-29
2022/09/15 11:22:14;;;;;;;;;;;21.50;65.70;;;;;;5056225;28;19923;-29
2022/09/15 11:25:06;;;;;;;;;;;20.90;83.30;;;;;;5038718;28;20309;-29
2022/09/15 11:27:52;;;;;;;;;;;20.30;97.70;;;;;;4984926;28;20356;-29
2022/09/15 11:30:19;;;;;;;;;;;19.80;99.90;;;;;;5022049;28;19916;-28
2022/09/15 11:33:08;;;;;;;;;;;19.50;99.90;;;;;;5038254;28;19978;-28
2022/09/15 11:35:46;;;;;;;;;;;19.20;99.90;;;;;;4992790;28;19921;-28
2022/09/15 11:38:24;;;;;;;;;;;19.20;99.90;;;;;;5038384;28;19924;-29
2022/09/15 11:40:55;;;;;;;;;;;19.10;99.90;;;;;;5038080;28;19917;-29
2022/09/15 11:43:27;;;;;;;;;;;19.10;99.90;;;;;;5037003;28;19917;-29
2022/09/15 11:45:55;;;;;;;;;;;18.90;99.90;;;;;;5037786;28;19916;-29
2022/09/15 11:48:30;;;;;;;;;;;18.70;99.90;;;;;;5037449;28;19917;-29
2022/09/15 11:50:57;;;;;;;;;;;18.70;99.90;;;;;;5020103;28;19967;-31
2022/09/15 11:53:32;;;;;;;;;;;18.50;99.90;;;;;;5018810;28;19960;-30
2022/09/15 11:55:57;;;;;;;;;;;18.50;99.90;;;;;;5046669;28;19916;-31
2022/09/15 11:58:29;;;;;;;;;;;18.30;99.90;;;;;;5035062;28;19925;-30
2022/09/15 12:00:58;;;;;;;;;;;18.20;99.90;;;;;;5025608;28;20003;-30
2022/09/15 12:03:28;;;;;;;;;;;18.20;99.90;;;;;;5020376;28;19921;-31
2022/09/15 12:05:56;;;;;;;;;;;18.20;99.90;;;;;;5015913;28;20375;-30
2022/09/15 12:08:31;;;;;;;;;;;18.40;99.90;;;;;;5017815;28;20282;-30
2022/09/15 12:10:58;;;;;;;;;;;18.90;99.90;;;;;;5030862;28;20007;-31
2022/09/15 12:13:25;;;;;;;;;;;19.70;99.90;;;;;;5016418;28;19931;-30
2022/09/15 12:15:51;;;;;;;;;;;21.00;99.90;;;;;;5016502;28;19967;-30
2022/09/15 12:18:33;;;;;;;;;;;21.80;99.90;;;;;;5019508;28;19917;-31
2022/09/15 12:21:01;;;;;;;;;;;22.90;93.80;;;;;;5027064;28;19917;-31
2022/09/15 12:23:31;;;;;;;;;;;23.60;85.50;;;;;;5035073;28;19917;-31
2022/09/15 12:25:56;;;;;;;;;;;22.70;72.80;;;;;;5021806;28;19917;-31
2022/09/15 12:28:22;;;;;;;;;;;21.70;78.10;;;;;;5026948;28;19916;-31
2022/09/15 12:31:08;;;;;;;;;;;20.90;93.50;;;;;;5017110;28;19917;-30
2022/09/15 12:33:53;;;;;;;;;;;20.50;99.90;;;;;;4980999;28;19925;-31
2022/09/15 12:36:39;;;;;;;;;;;21.00;99.90;;;;;;5005403;28;20426;-31
2022/09/15 12:39:25;;;;;;;;;;;21.20;92.60;;;;;;5034235;28;19975;-31
2022/09/15 12:41:52;;;;;;;;;;;21.00;96.90;;;;;;5027974;28;19970;-30
2022/09/15 12:44:27;;;;;;;;;;;20.50;94.90;;;;;;5003589;28;19976;-30
2022/09/15 12:46:54;;;;;;;;;;;20.10;99.50;;;;;;5021152;28;19921;-30
2022/09/15 12:49:22;;;;;;;;;;;19.80;96.70;;;;;;5015932;28;19952;-30
2022/09/15 12:51:48;;;;;;;;;;;19.50;97.50;;;;;;5015717;28;19917;-30
2022/09/15 12:54:26;;;;;;;;;;;19.60;99.90;;;;;;5016468;28;19924;-31
2022/09/15 12:56:53;;;;;;;;;;;20.20;99.90;;;;;;5023771;28;19921;-30
2022/09/15 12:59:21;;;;;;;;;;;20.80;94.90;;;;;;5018530;28;19966;-30
2022/09/15 13:01:47;;;;;;;;;;;20.70;84.80;;;;;;5017455;28;19932;-30
2022/09/15 13:04:25;;;;;;;;;;;20.50;87.70;;;;;;5015511;28;19953;-30
2022/09/15 13:07:20;;;;;;;;;;;20.30;89.90;;;;;;5004060;28;19953;-30
2022/09/15 13:09:55;;;;;;;;;;;20.20;89.70;;;;;;4985995;28;19928;-30
2022/09/15 13:12:22;;;;;;;;;;;21.60;83.60;;;;;;5017951;28;19923;-31
2022/09/15 13:14:49;;;;;;;;;;;22.90;63.90;;;;;;5025898;28;19916;-31
2022/09/15 13:17:18;;;;;;;;;;;24.00;58.90;;;;;;5024404;28;20366;-31
2022/09/15 13:19:46;;;;;;;;;;;25.10;55.50;;;;;;5008162;28;20007;-31
2022/09/15 13:22:11;;;;;;;;;;;25.40;49.70;;;;;;5019342;28;19917;-30
2022/09/15 13:24:46;;;;;;;;;;;26.10;50.60;;;;;;5022895;28;19916;-28
2022/09/15 13:27:13;;;;;;;;;;;25.70;47.10;;;;;;5015510;28;19924;-28
2022/09/15 13:29:42;;;;;;;;;;;24.90;50.00;;;;;;5018158;28;19929;-28
2022/09/15 13:32:28;;;;;;;;;;;23.60;49.70;;;;;;5040989;28;19920;-28
2022/09/15 13:35:12;;;;;;;;;;;22.70;53.50;;;;;;5009510;28;19928;-29
2022/09/15 13:38:01;;;;;;;;;;;21.60;59.50;;;;;;5021819;28;19917;-28
2022/09/15 13:40:38;;;;;;;;;;;20.80;72.90;;;;;;5009316;28;19917;-28
2022/09/15 13:43:23;;;;;;;;;;;20.20;86.30;;;;;;5010931;28;19921;-29
2022/09/15 13:46:07;;;;;;;;;;;19.60;94.60;;;;;;5017106;28;20376;-29
2022/09/15 13:48:41;;;;;;;;;;;19.10;99.40;;;;;;5031027;28;19924;-29
2022/09/15 13:51:36;;;;;;;;;;;18.70;99.90;;;;;;5020785;28;19924;-29
2022/09/15 13:54:05;;;;;;;;;;;18.50;99.90;;;;;;4996906;28;19922;-29
2022/09/15 13:56:34;;;;;;;;;;;18.40;99.90;;;;;;5021030;28;20334;-29
2022/09/15 13:59:01;;;;;;;;;;;18.10;99.90;;;;;;5020477;28;19932;-30
2022/09/15 14:01:28;;;;;;;;;;;18.10;99.90;;;;;;5023310;28;19923;-29
2022/09/15 14:03:57;;;;;;;;;;;18.40;99.90;;;;;;5010284;28;19924;-29
2022/09/15 14:06:29;;;;;;;;;;;19.10;99.90;;;;;;5027697;28;19917;-29
2022/09/15 14:08:56;;;;;;;;;;;19.70;99.90;;;;;;5014457;28;19917;-29
2022/09/15 14:11:24;;;;;;;;;;;19.90;99.90;;;;;;5007148;28;19921;-29
2022/09/15 14:13:50;;;;;;;;;;;21.00;99.90;;;;;;5017747;28;19921;-29
2022/09/15 14:16:29;;;;;;;;;;;22.10;76.10;;;;;;5017717;28;19917;-30
2022/09/15 14:18:58;;;;;;;;;;;23.10;68.60;;;;;;5016030;28;19916;-30
2022/09/15 14:21:28;;;;;;;;;;;24.10;60.00;;;;;;5013695;28;20350;-31
2022/09/15 14:23:55;;;;;;;;;;;24.70;53.90;;;;;;5014079;28;19917;-30
2022/09/15 14:26:23;;;;;;;;;;;24.80;52.40;;;;;;5012186;28;19940;-31
2022/09/15 14:28:55;;;;;;;;;;;25.00;51.20;;;;;;5020918;28;20380;-30